createdAt,value
2018-09-17T00:01:30.391Z,82.67
2018-09-17T00:03:58.830Z,82.23
2018-09-17T00:06:27.648Z,81.49
2018-09-17T00:08:56.652Z,81.11
2018-09-17T00:11:25.446Z,81.84
2018-09-17T00:13:54.237Z,81.79
2018-09-17T00:16:23.023Z,81.06
2018-09-17T00:18:51.765Z,79.09
2018-09-17T00:21:20.471Z,80.61
2018-09-17T00:23:49.414Z,79.65
2018-09-17T00:26:18.565Z,79.03
2018-09-17T00:28:47.194Z,79.45
2018-09-17T00:31:15.963Z,79.39
2018-09-17T00:33:44.444Z,79.66
2018-09-17T00:36:13.180Z,79.78
2018-09-17T00:38:41.795Z,77.83
2018-09-17T00:41:10.597Z,79.70
2018-09-17T00:43:39.081Z,79.84
2018-09-17T00:46:07.670Z,79.87
2018-09-17T00:48:36.045Z,80.59
2018-09-17T00:51:04.719Z,80.06
2018-09-17T00:53:33.171Z,80.49
2018-09-17T00:56:01.923Z,80.34
2018-09-17T00:58:30.402Z,80.35
2018-09-17T01:00:58.939Z,80.48
2018-09-17T01:03:27.488Z,81.15
2018-09-17T01:05:55.924Z,81.74
2018-09-17T01:08:24.377Z,81.97
2018-09-17T01:10:53.197Z,81.87
2018-09-17T01:13:21.975Z,81.69
2018-09-17T01:15:50.840Z,80.65
2018-09-17T01:18:19.258Z,80.91
2018-09-17T01:20:48.896Z,81.40
2018-09-17T01:23:17.357Z,80.81
2018-09-17T01:25:46.147Z,81.55
2018-09-17T01:28:14.951Z,80.77
2018-09-17T01:30:43.418Z,80.85
2018-09-17T01:33:11.978Z,81.28
2018-09-17T01:35:41.389Z,81.67
2018-09-17T01:38:09.859Z,81.23
2018-09-17T01:40:38.586Z,81.35
2018-09-17T01:43:07.666Z,80.94
2018-09-17T01:45:36.439Z,81.30
2018-09-17T01:48:04.973Z,81.27
2018-09-17T01:50:33.525Z,81.38
2018-09-17T01:53:02.022Z,80.71
2018-09-17T01:55:30.496Z,81.20
2018-09-17T01:57:59.096Z,81.32
2018-09-17T02:00:27.545Z,80.29
2018-09-17T02:02:56.148Z,80.33
2018-09-17T02:05:24.537Z,81.58
2018-09-17T02:07:53.196Z,80.89
2018-09-17T02:10:22.223Z,80.60
2018-09-17T02:12:50.630Z,82.14
2018-09-17T02:15:19.369Z,81.81
2018-09-17T02:17:48.340Z,82.35
2018-09-17T02:20:17.160Z,82.44
2018-09-17T02:22:45.641Z,81.83
2018-09-17T02:25:14.080Z,81.66
2018-09-17T02:27:42.516Z,82.79
2018-09-17T02:30:10.976Z,81.80
2018-09-17T02:32:39.359Z,82.63
2018-09-17T02:35:07.790Z,81.65
2018-09-17T02:37:36.277Z,82.27
2018-09-17T02:40:07.935Z,82.07
2018-09-17T02:42:37.247Z,81.52
2018-09-17T02:45:06.064Z,82.02
2018-09-17T02:47:34.616Z,83.56
2018-09-17T02:50:03.404Z,83.34
2018-09-17T02:52:32.398Z,83.06
2018-09-17T02:55:00.935Z,83.03
2018-09-17T02:57:29.664Z,83.08
2018-09-17T02:59:58.275Z,82.62
2018-09-17T03:02:26.738Z,83.44
2018-09-17T03:04:55.287Z,82.51
2018-09-17T03:07:23.789Z,82.31
2018-09-17T03:09:52.275Z,81.87
2018-09-17T03:12:20.594Z,82.82
2018-09-17T03:14:49.223Z,82.04
2018-09-17T03:17:18.999Z,82.15
2018-09-17T03:19:48.578Z,82.49
2018-09-17T03:22:17.136Z,82.50
2018-09-17T03:24:45.808Z,82.20
2018-09-17T03:27:14.291Z,82.04
2018-09-17T03:29:42.836Z,82.66
2018-09-17T03:32:11.300Z,82.99
2018-09-17T03:34:39.740Z,84.05
2018-09-17T03:37:08.221Z,84.37
2018-09-17T03:39:36.747Z,84.13
2018-09-17T03:42:05.414Z,84.13
2018-09-17T03:44:33.859Z,84.61
2018-09-17T03:47:02.352Z,85.38
2018-09-17T03:49:31.239Z,84.14
2018-09-17T03:51:59.653Z,85.37
2018-09-17T03:54:28.138Z,84.10
2018-09-17T03:56:56.643Z,83.45
2018-09-17T03:59:25.028Z,83.58
2018-09-17T04:01:53.747Z,84.26
2018-09-17T04:04:22.355Z,83.78
2018-09-17T04:06:50.874Z,83.84
2018-09-17T04:09:19.325Z,84.08
2018-09-17T04:11:47.875Z,84.16
2018-09-17T04:14:16.464Z,83.70
2018-09-17T04:16:45.014Z,83.45
2018-09-17T04:19:13.440Z,84.39
2018-09-17T04:21:41.929Z,84.14
2018-09-17T04:24:10.503Z,83.32
2018-09-17T04:26:39.013Z,83.32
2018-09-17T04:29:10.767Z,83.35
2018-09-17T04:31:39.266Z,83.03
2018-09-17T04:34:07.765Z,83.21
2018-09-17T04:36:36.376Z,83.25
2018-09-17T04:39:06.830Z,83.56
2018-09-17T04:41:35.296Z,83.22
2018-09-17T04:44:03.788Z,83.24
2018-09-17T04:46:32.168Z,83.35
2018-09-17T04:49:00.756Z,84.53
2018-09-17T04:51:29.310Z,84.44
2018-09-17T04:53:57.953Z,84.91
2018-09-17T04:56:26.430Z,84.74
2018-09-17T04:58:55.480Z,84.32
2018-09-17T05:01:24.149Z,84.55
2018-09-17T05:03:52.638Z,84.68
2018-09-17T05:06:21.190Z,84.02
2018-09-17T05:08:49.746Z,85.34
2018-09-17T05:11:18.416Z,84.98
2018-09-17T05:13:47.019Z,84.60
2018-09-17T05:16:15.689Z,83.21
2018-09-17T05:18:44.201Z,82.86
2018-09-17T05:21:12.844Z,82.59
2018-09-17T05:23:42.278Z,82.38
2018-09-17T05:26:10.782Z,82.00
2018-09-17T05:28:39.337Z,81.64
2018-09-17T05:31:07.877Z,81.82
2018-09-17T05:33:36.463Z,82.16
2018-09-17T05:36:04.963Z,81.42
2018-09-17T05:38:35.491Z,81.29
2018-09-17T05:41:04.594Z,82.08
2018-09-17T05:43:33.240Z,81.83
2018-09-17T05:46:02.540Z,81.32
2018-09-17T05:48:31.042Z,81.64
2018-09-17T05:50:59.653Z,81.17
2018-09-17T05:53:28.368Z,80.45
2018-09-17T05:55:57.131Z,80.34
2018-09-17T05:58:25.805Z,80.62
2018-09-17T06:00:54.689Z,80.25
2018-09-17T06:03:23.384Z,77.33
2018-09-17T06:05:52.078Z,78.84
2018-09-17T06:08:20.613Z,77.84
2018-09-17T06:10:49.266Z,78.68
2018-09-17T06:13:17.779Z,79.50
2018-09-17T06:15:46.264Z,78.36
2018-09-17T06:18:16.325Z,79.07
2018-09-17T06:20:44.832Z,77.73
2018-09-17T06:23:13.441Z,76.03
2018-09-17T06:25:41.944Z,74.45
2018-09-17T06:28:10.470Z,73.94
2018-09-17T06:30:39.009Z,74.89
2018-09-17T06:33:07.504Z,77.28
2018-09-17T06:35:35.974Z,79.80
2018-09-17T06:38:04.327Z,80.03
2018-09-17T06:40:33.195Z,80.36
2018-09-17T06:43:01.708Z,79.93
2018-09-17T06:45:30.227Z,79.67
2018-09-17T06:47:59.428Z,80.18
2018-09-17T06:50:27.906Z,79.97
2018-09-17T06:52:56.386Z,78.92
2018-09-17T06:55:24.894Z,78.25
2018-09-17T06:57:53.352Z,77.54
2018-09-17T07:00:21.840Z,77.52
2018-09-17T07:02:50.393Z,78.48
2018-09-17T07:05:18.963Z,74.23
2018-09-17T07:07:47.575Z,73.98
2018-09-17T07:10:16.091Z,74.12
2018-09-17T07:12:44.553Z,71.04
2018-09-17T07:15:13.057Z,71.66
2018-09-17T07:17:41.678Z,71.75
2018-09-17T07:20:10.176Z,71.14
2018-09-17T07:22:38.655Z,72.09
2018-09-17T07:25:08.001Z,71.74
2018-09-17T07:27:36.692Z,72.86
2018-09-17T07:30:05.396Z,72.74
2018-09-17T07:32:33.994Z,72.84
2018-09-17T07:35:02.473Z,72.79
2018-09-17T07:37:31.059Z,71.21
2018-09-17T07:39:59.470Z,70.88
2018-09-17T07:42:27.987Z,69.23
2018-09-17T07:44:56.535Z,70.67
2018-09-17T07:47:25.139Z,68.93
2018-09-17T07:49:53.658Z,68.85
2018-09-17T07:52:22.206Z,68.47
2018-09-17T07:54:51.479Z,69.08
2018-09-17T07:57:20.143Z,66.12
2018-09-17T07:59:48.868Z,66.37
2018-09-17T08:02:17.453Z,65.31
2018-09-17T08:04:46.011Z,65.97
2018-09-17T08:07:14.503Z,63.64
2018-09-17T08:09:43.034Z,63.01
2018-09-17T08:12:11.659Z,61.90
2018-09-17T08:14:40.163Z,62.51
2018-09-17T08:17:08.648Z,62.28
2018-09-17T08:19:37.847Z,62.23
2018-09-17T08:22:06.334Z,61.73
2018-09-17T08:24:35.067Z,61.52
2018-09-17T08:27:03.564Z,60.97
2018-09-17T08:29:32.003Z,59.13
2018-09-17T08:32:00.490Z,58.60
2018-09-17T08:34:29.057Z,58.75
2018-09-17T08:36:57.532Z,59.26
2018-09-17T08:39:26.004Z,57.47
2018-09-17T08:41:54.503Z,57.47
2018-09-17T08:44:23.051Z,56.74
2018-09-17T08:46:51.449Z,55.34
2018-09-17T08:49:19.980Z,56.96
2018-09-17T08:51:48.550Z,56.04
2018-09-17T08:54:17.059Z,56.97
2018-09-17T08:56:49.793Z,55.40
2018-09-17T08:59:23.732Z,55.92
2018-09-17T09:01:57.795Z,56.99
2018-09-17T09:04:31.432Z,55.79
2018-09-17T09:07:05.815Z,55.36
2018-09-17T09:09:34.245Z,55.15
2018-09-17T09:12:08.043Z,54.77
2018-09-17T09:14:39.172Z,55.51
2018-09-17T09:17:08.760Z,53.59
2018-09-17T09:19:37.255Z,53.71
2018-09-17T09:22:05.625Z,51.55
2018-09-17T09:24:34.011Z,52.08
2018-09-17T09:27:03.328Z,52.35
2018-09-17T09:29:31.783Z,52.81
2018-09-17T09:32:00.272Z,53.74
2018-09-17T09:34:28.729Z,52.07
2018-09-17T09:36:57.207Z,53.22
2018-09-17T09:39:25.689Z,53.18
2018-09-17T09:41:54.126Z,51.21
2018-09-17T09:44:22.603Z,49.17
2018-09-17T09:46:51.117Z,49.75
2018-09-17T09:49:19.596Z,51.26
2018-09-17T09:51:48.120Z,50.80
2018-09-17T09:54:16.704Z,49.82
2018-09-17T09:56:45.235Z,48.97
2018-09-17T09:59:13.684Z,50.40
2018-09-17T10:01:47.384Z,49.47
2018-09-17T10:04:22.768Z,49.07
2018-09-17T10:06:52.267Z,48.25
2018-09-17T10:09:26.074Z,49.76
2018-09-17T10:11:59.854Z,48.55
2018-09-17T10:14:33.613Z,47.09
2018-09-17T10:17:07.810Z,48.76
2018-09-17T10:19:40.526Z,48.48
2018-09-17T10:22:09.124Z,49.51
2018-09-17T10:24:37.717Z,47.46
2018-09-17T10:27:06.210Z,48.69
2018-09-17T10:29:34.699Z,46.67
2018-09-17T10:32:03.239Z,46.22
2018-09-17T10:34:31.698Z,44.84
2018-09-17T10:37:00.312Z,46.66
2018-09-17T10:39:28.868Z,46.01
2018-09-17T10:41:57.448Z,47.44
2018-09-17T10:44:25.992Z,46.12
2018-09-17T10:46:54.495Z,45.76
2018-09-17T10:49:22.973Z,47.01
2018-09-17T10:51:51.595Z,45.42
2018-09-17T10:54:20.144Z,45.95
2018-09-17T10:56:48.675Z,45.30
2018-09-17T10:59:17.252Z,44.69
2018-09-17T11:01:45.717Z,46.63
2018-09-17T11:04:14.326Z,45.85
2018-09-17T11:06:42.910Z,47.67
2018-09-17T11:09:12.822Z,46.72
2018-09-17T11:11:41.755Z,46.53
2018-09-17T11:14:10.901Z,43.87
2018-09-17T11:16:39.589Z,47.69
2018-09-17T11:19:08.477Z,46.88
2018-09-17T11:21:37.284Z,46.48
2018-09-17T11:24:05.753Z,45.95
2018-09-17T11:26:34.532Z,44.59
2018-09-17T11:29:03.089Z,44.69
2018-09-17T11:31:31.840Z,45.23
2018-09-17T11:34:00.415Z,45.63
2018-09-17T11:36:28.982Z,44.16
2018-09-17T11:38:58.194Z,41.91
2018-09-17T11:41:26.616Z,42.60
2018-09-17T11:43:55.152Z,42.86
2018-09-17T11:46:23.663Z,42.67
2018-09-17T11:48:52.185Z,42.52
2018-09-17T11:51:20.649Z,43.11
2018-09-17T11:53:49.120Z,43.06
2018-09-17T11:56:17.605Z,43.53
2018-09-17T11:58:46.101Z,43.25
2018-09-17T12:03:25.503Z,42.74
2018-09-17T12:06:01.187Z,42.60
2018-09-17T12:08:29.822Z,42.91
2018-09-17T12:10:58.647Z,42.86
2018-09-17T12:13:27.375Z,43.27
2018-09-17T12:15:56.039Z,45.35
2018-09-17T12:18:24.967Z,44.50
2018-09-17T12:20:55.290Z,43.34
2018-09-17T12:23:24.203Z,44.22
2018-09-17T12:25:52.890Z,44.29
2018-09-17T12:28:22.569Z,46.50
2018-09-17T12:30:51.855Z,44.76
2018-09-17T12:33:20.438Z,44.59
2018-09-17T12:35:49.974Z,43.83
2018-09-17T12:38:18.865Z,44.43
2018-09-17T12:40:47.495Z,43.75
2018-09-17T12:43:16.200Z,42.92
2018-09-17T12:45:45.723Z,42.70
2018-09-17T12:48:14.593Z,42.46
2018-09-17T12:50:49.910Z,42.76
2018-09-17T12:53:19.411Z,42.97
2018-09-17T12:55:48.164Z,42.34
2018-09-17T12:58:17.114Z,42.91
2018-09-17T13:00:47.171Z,42.29
2018-09-17T13:03:16.067Z,41.94
2018-09-17T13:05:44.868Z,41.79
2018-09-17T13:08:13.717Z,42.08
2018-09-17T13:10:42.443Z,43.76
2018-09-17T13:13:11.494Z,43.24
2018-09-17T13:15:45.466Z,43.36
2018-09-17T13:18:14.084Z,42.73
2018-09-17T13:20:42.767Z,42.44
2018-09-17T13:23:11.548Z,41.84
2018-09-17T13:25:40.302Z,42.48
2018-09-17T13:28:09.191Z,42.65
2018-09-17T13:30:37.883Z,42.91
2018-09-17T13:33:06.617Z,42.68
2018-09-17T13:35:35.483Z,43.33
2018-09-17T13:38:04.140Z,42.86
2018-09-17T13:40:32.829Z,42.25
2018-09-17T13:43:01.324Z,41.63
2018-09-17T13:45:30.112Z,43.07
2018-09-17T13:47:59.424Z,42.73
2018-09-17T13:50:28.350Z,42.14
2018-09-17T13:52:59.688Z,42.29
2018-09-17T13:55:28.400Z,42.42
2018-09-17T13:57:57.090Z,41.92
2018-09-17T14:00:26.583Z,40.79
2018-09-17T14:02:55.296Z,41.51
2018-09-17T14:05:24.593Z,41.13
2018-09-17T14:07:53.320Z,42.25
2018-09-17T14:10:22.331Z,41.72
2018-09-17T14:12:51.004Z,40.48
2018-09-17T14:15:19.828Z,41.31
2018-09-17T14:17:49.064Z,40.67
2018-09-17T14:20:17.857Z,40.86
2018-09-17T14:22:46.629Z,41.58
2018-09-17T14:25:15.460Z,41.52
2018-09-17T14:27:45.211Z,41.76
2018-09-17T14:30:14.215Z,41.47
2018-09-17T14:32:48.134Z,40.91
2018-09-17T14:35:17.387Z,40.57
2018-09-17T14:37:46.291Z,41.17
2018-09-17T14:40:15.215Z,40.65
2018-09-17T14:42:44.113Z,41.18
2018-09-17T14:45:12.920Z,41.91
2018-09-17T14:47:41.692Z,41.42
2018-09-17T14:50:10.241Z,42.42
2018-09-17T14:52:39.151Z,41.58
2018-09-17T14:55:08.070Z,41.18
2018-09-17T14:57:36.928Z,40.79
2018-09-17T15:00:05.687Z,41.58
2018-09-17T15:02:34.406Z,40.89
2018-09-17T15:05:03.320Z,40.98
2018-09-17T15:07:31.845Z,40.76
2018-09-17T15:10:00.727Z,40.73
2018-09-17T15:12:29.317Z,41.16
2018-09-17T15:14:58.299Z,41.23
2018-09-17T15:17:27.003Z,40.30
2018-09-17T15:19:57.658Z,40.84
2018-09-17T15:22:26.390Z,41.42
2018-09-17T15:24:55.101Z,41.16
2018-09-17T15:27:23.834Z,42.55
2018-09-17T15:29:52.569Z,41.69
2018-09-17T15:32:21.263Z,40.38
2018-09-17T15:34:49.806Z,41.86
2018-09-17T15:37:18.640Z,40.99
2018-09-17T15:39:47.320Z,40.59
2018-09-17T15:42:16.103Z,41.32
2018-09-17T15:44:44.948Z,41.03
2018-09-17T15:47:13.468Z,40.24
2018-09-17T15:49:42.311Z,40.40
2018-09-17T15:52:12.429Z,40.94
2018-09-17T15:54:41.454Z,40.61
2018-09-17T15:57:22.376Z,40.77
2018-09-17T15:59:54.554Z,41.40
2018-09-17T16:02:23.463Z,40.74
2018-09-17T16:04:52.356Z,40.24
2018-09-17T16:07:20.871Z,40.36
2018-09-17T16:09:49.496Z,40.82
2018-09-17T16:12:18.425Z,41.29
2018-09-17T16:14:47.865Z,41.94
2018-09-17T16:17:16.951Z,43.09
2018-09-17T16:19:46.652Z,41.73
2018-09-17T16:22:15.428Z,42.31
2018-09-17T16:24:45.760Z,42.25
2018-09-17T16:27:14.696Z,43.50
2018-09-17T16:29:44.057Z,42.59
2018-09-17T16:32:13.824Z,43.94
2018-09-17T16:34:44.499Z,43.79
2018-09-17T16:37:13.479Z,44.05
2018-09-17T16:39:42.204Z,44.38
2018-09-17T16:42:10.970Z,44.43
2018-09-17T16:44:39.971Z,45.46
2018-09-17T16:47:09.464Z,49.27
2018-09-17T16:49:40.292Z,46.12
2018-09-17T16:52:09.195Z,50.56
2018-09-17T16:54:41.113Z,48.17
2018-09-17T16:57:10.551Z,47.71
2018-09-17T16:59:39.315Z,50.07
2018-09-17T17:02:08.204Z,49.38
2018-09-17T17:04:36.907Z,48.99
2018-09-17T17:07:06.618Z,50.08
2018-09-17T17:09:35.722Z,50.46
2018-09-17T17:12:04.539Z,51.10
2018-09-17T17:14:33.614Z,52.01
2018-09-17T17:17:02.520Z,51.79
2018-09-17T17:19:31.764Z,51.90
2018-09-17T17:22:00.683Z,52.72
2018-09-17T17:24:29.770Z,53.27
2018-09-17T17:26:58.943Z,53.42
2018-09-17T17:29:27.950Z,53.91
2018-09-17T17:31:57.565Z,54.47
2018-09-17T17:34:26.398Z,54.16
2018-09-17T17:36:55.868Z,54.79
2018-09-17T17:39:24.734Z,55.70
2018-09-17T17:41:53.626Z,55.85
2018-09-17T17:44:23.215Z,56.64
2018-09-17T17:46:52.411Z,56.50
2018-09-17T17:49:21.085Z,56.81
2018-09-17T17:51:49.753Z,57.42
2018-09-17T17:54:18.790Z,57.15
2018-09-17T17:56:47.586Z,58.00
2018-09-17T17:59:18.622Z,58.38
2018-09-17T18:01:47.347Z,58.44
2018-09-17T18:04:15.910Z,59.06
2018-09-17T18:06:45.599Z,59.14
2018-09-17T18:09:14.469Z,59.38
2018-09-17T18:11:44.079Z,59.72
2018-09-17T18:14:13.293Z,60.38
2018-09-17T18:16:43.114Z,60.60
2018-09-17T18:19:11.817Z,61.22
2018-09-17T18:21:40.811Z,60.95
2018-09-17T18:24:09.332Z,61.61
2018-09-17T18:26:37.827Z,61.37
2018-09-17T18:29:07.140Z,61.98
2018-09-17T18:31:35.906Z,62.44
2018-09-17T18:34:04.911Z,62.59
2018-09-17T18:36:33.455Z,62.86
2018-09-17T18:39:02.234Z,63.06
2018-09-17T18:41:30.868Z,63.45
2018-09-17T18:43:59.555Z,64.00
2018-09-17T18:46:28.239Z,64.74
2018-09-17T18:48:57.396Z,65.45
2018-09-17T18:51:26.614Z,65.88
2018-09-17T18:53:55.473Z,65.50
2018-09-17T18:56:24.841Z,65.43
2018-09-17T18:58:54.244Z,66.21
2018-09-17T19:01:23.143Z,65.53
2018-09-17T19:03:52.574Z,65.83
2018-09-17T19:06:22.517Z,65.83
2018-09-17T19:08:52.697Z,66.91
2018-09-17T19:11:21.321Z,66.64
2018-09-17T19:13:55.266Z,66.94
2018-09-17T19:16:29.289Z,67.02
2018-09-17T19:18:57.924Z,66.85
2018-09-17T19:21:30.747Z,66.18
2018-09-17T19:24:04.527Z,66.61
2018-09-17T19:26:33.132Z,66.47
2018-09-17T19:29:06.868Z,66.07
2018-09-17T19:31:39.613Z,66.51
2018-09-17T19:34:08.555Z,66.88
2018-09-17T19:36:37.918Z,67.12
2018-09-17T19:39:13.513Z,67.60
2018-09-17T19:41:42.371Z,67.94
2018-09-17T19:44:10.989Z,67.74
2018-09-17T19:46:40.064Z,68.76
2018-09-17T19:49:09.192Z,68.29
2018-09-17T19:51:43.883Z,69.48
2018-09-17T19:54:13.346Z,69.74
2018-09-17T19:56:42.818Z,69.58
2018-09-17T19:59:17.242Z,69.19
2018-09-17T20:01:46.516Z,68.86
2018-09-17T20:06:23.754Z,69.69
2018-09-17T20:08:53.126Z,69.90
2018-09-17T20:11:22.626Z,70.20
2018-09-17T20:13:52.134Z,69.35
2018-09-17T20:16:20.962Z,69.57
2018-09-17T20:18:50.199Z,70.24
2018-09-17T20:21:18.723Z,69.06
2018-09-17T20:23:47.288Z,69.60
2018-09-17T20:26:15.995Z,69.54
2018-09-17T20:28:44.690Z,69.11
2018-09-17T20:31:13.300Z,69.94
2018-09-17T20:33:42.462Z,69.22
2018-09-17T20:36:11.811Z,69.78
2018-09-17T20:38:40.349Z,70.67
2018-09-17T20:41:10.454Z,69.62
2018-09-17T20:43:41.105Z,70.84
2018-09-17T20:46:09.844Z,70.56
2018-09-17T20:48:38.567Z,70.77
2018-09-17T20:51:07.623Z,70.33
2018-09-17T20:53:36.952Z,71.89
2018-09-17T20:56:06.054Z,71.02
2018-09-17T20:58:34.737Z,70.51
2018-09-17T21:01:03.456Z,70.24
2018-09-17T21:03:32.111Z,70.24
2018-09-17T21:06:00.783Z,70.43
2018-09-17T21:08:29.429Z,69.75
2018-09-17T21:10:58.297Z,70.21
2018-09-17T21:13:27.042Z,70.76
2018-09-17T21:15:55.545Z,71.24
2018-09-17T21:18:24.469Z,70.60
2018-09-17T21:20:53.102Z,70.51
2018-09-17T21:23:22.470Z,67.71
2018-09-17T21:25:51.042Z,66.28
2018-09-17T21:28:19.514Z,68.54
2018-09-17T21:30:48.667Z,68.01
2018-09-17T21:33:17.563Z,68.02
2018-09-17T21:35:47.324Z,68.39
2018-09-17T21:38:15.804Z,69.74
2018-09-17T21:40:44.386Z,69.49
2018-09-17T21:43:12.985Z,70.35
2018-09-17T21:45:41.751Z,70.44
2018-09-17T21:48:11.293Z,70.08
2018-09-17T21:50:39.936Z,69.23
2018-09-17T21:53:08.861Z,69.40
2018-09-17T21:55:37.551Z,68.91
2018-09-17T21:58:06.236Z,69.86
2018-09-17T22:01:11.526Z,68.96
2018-09-17T22:03:40.687Z,68.66
2018-09-17T22:06:09.873Z,69.28
2018-09-17T22:08:38.526Z,69.68
2018-09-17T22:11:07.441Z,69.75
2018-09-17T22:13:36.052Z,70.39
2018-09-17T22:16:04.766Z,69.54
2018-09-17T22:18:33.461Z,70.60
2018-09-17T22:21:02.048Z,70.35
2018-09-17T22:23:30.565Z,70.16
2018-09-17T22:25:59.232Z,70.90
2018-09-17T22:28:27.625Z,70.91
2018-09-17T22:30:57.595Z,70.30
2018-09-17T22:33:26.163Z,70.12
2018-09-17T22:35:55.311Z,71.16
2018-09-17T22:38:23.784Z,71.47
2018-09-17T22:40:52.536Z,70.65
2018-09-17T22:43:21.117Z,71.99
2018-09-17T22:45:50.621Z,71.81
2018-09-17T22:48:19.705Z,72.07
2018-09-17T22:50:48.209Z,72.13
2018-09-17T22:55:59.597Z,71.17
2018-09-17T22:58:28.386Z,70.76
2018-09-17T23:00:57.003Z,70.83
2018-09-17T23:03:25.536Z,71.61
2018-09-17T23:05:54.313Z,71.57
2018-09-17T23:08:22.818Z,72.15
2018-09-17T23:10:51.911Z,71.99
2018-09-17T23:13:20.471Z,71.04
2018-09-17T23:15:49.974Z,70.72
2018-09-17T23:18:18.481Z,70.50
2018-09-17T23:20:46.990Z,71.20
2018-09-17T23:23:15.768Z,71.93
2018-09-17T23:25:44.954Z,70.56
2018-09-17T23:28:14.066Z,70.65
2018-09-17T23:30:43.571Z,70.31
2018-09-17T23:33:12.877Z,72.19
2018-09-17T23:35:41.548Z,71.18
2018-09-17T23:38:10.001Z,69.68
2018-09-17T23:40:39.117Z,68.69
2018-09-17T23:43:09.058Z,67.78
2018-09-17T23:45:38.197Z,69.18
2018-09-17T23:48:07.008Z,68.77
2018-09-17T23:50:36.130Z,68.50
2018-09-17T23:53:04.751Z,69.23
2018-09-17T23:55:33.396Z,69.38
2018-09-17T23:58:01.988Z,69.78
